Weather observations for the past three days for
Manning / Cooper Regional
Imperial (Metric)
Date Time (edt) Wind (mph) Vis. (mi.) Weather Sky Cond. Temperature (ºF) Relative Humidity Wind Chill (°F) Heat Index (°F) Pressure Precipitation (in)
Air Dwpt 6 hour altimeter (in) sea level (mb) 1 hr 3 hr 6 hr
Max. Min.
09 08:55 Calm 10.00 Overcast OVC090 62.6 59 88% 29.95 0.0
09 08:35 Calm 10.00 Overcast BKN090 OVC110 60.8 59 94% 29.95 0.0
09 08:15 Calm 10.00 Overcast SCT075 OVC100 60.8 57.2 88% 29.94 0.0
09 07:55 Calm 10.00 Overcast BKN075 OVC100 59 57.2 94% 29.95 0.0
09 07:35 Calm 10.00 Overcast OVC100 59 55.4 88% 29.95 0.0
09 07:15 Calm 10.00 Overcast OVC100 57.2 55.4 94% 29.94 0.0
09 06:55 Calm 10.00 Overcast OVC100 55.4 55.4 100% 29.93 0.0
09 06:35 Calm 10.00 Mostly Cloudy BKN100 55.4 53.6 94% 29.92 0.0
09 06:15 Calm 10.00 Fair CLR 55.4 55.4 100% 29.91 0.0
09 05:55 Calm 10.00 Fair CLR 55.4 55.4 100% 29.91 0.0
09 05:35 Calm 10.00 Fair CLR 55.4 53.6 94% 29.91 0.0
09 05:15 Calm 10.00 Fair CLR 55.4 53.6 94% 29.91 0.0
09 04:55 Calm 10.00 Partly Cloudy SCT080 57.2 55.4 94% 29.92 0.0
09 04:35 Calm 10.00 Fair CLR 59 55.4 88% 29.93 0.0
09 04:15 Calm 10.00 Fair CLR 59 55.4 88% 29.93 0.0
09 03:55 Calm 10.00 Partly Cloudy SCT120 59 55.4 88% 29.93 0.0
09 03:35 Calm 10.00 Mostly Cloudy BKN120 59 55.4 88% 29.93 0.0
09 03:15 Calm 10.00 Mostly Cloudy BKN110 59 55.4 88% 29.92 0.0
09 02:55 Calm 10.00 Overcast OVC110 59 55.4 88% 29.94 0.0
09 02:35 S 5 10.00 Overcast OVC110 59 55.4 88% 29.95 0.0
09 02:15 Calm 10.00 Mostly Cloudy BKN110 59 55.4 88% 29.97 0.0
09 01:55 Calm 10.00 Fair CLR 59 55.4 88% 29.96 0.0
09 01:35 Calm 10.00 Fair CLR 59 53.6 82% 29.98 0.0
09 01:15 Calm 10.00 Fair CLR 59 53.6 82% 29.98 0.0
09 00:55 Calm 10.00 Fair CLR 59 53.6 82% 30 0.0
09 00:35 Calm 10.00 Fair CLR 60.8 53.6 77% 29.99 0.0
09 00:15 E 3 10.00 Fair CLR 60.8 53.6 77% 29.99 0.0
08 23:55 Calm 10.00 Fair CLR 60.8 53.6 77% 30 0.0
08 23:35 SE 5 10.00 Fair CLR 60.8 53.6 77% 30.01 0.0
08 23:15 Calm 10.00 Fair CLR 60.8 53.6 77% 30.01 0.0
08 22:55 Calm 10.00 Fair CLR 60.8 53.6 77% 30 0.0
08 22:35 SE 5 10.00 Fair CLR 60.8 53.6 77% 30 0.0
08 22:15 Calm 10.00 Fair CLR 60.8 53.6 77% 30.02 0.0
08 21:55 Calm 10.00 Fair CLR 62.6 53.6 73% 30.01 0.0
08 21:35 Calm 10.00 Fair CLR 62.6 55.4 77% 30 0.0
08 21:15 Calm 10.00 Fair CLR 62.6 55.4 77% 30 0.0
08 20:35 Calm 10.00 Fair CLR 64.4 55.4 73% 29.99 0.0
08 20:15 S 3 10.00 Fair CLR 64.4 53.6 68% 29.98 0.0
08 19:55 S 5 10.00 Fair CLR 64.4 51.8 64% 29.97 0.0
08 19:35 Calm 10.00 Fair CLR 68 50 53% 29.97 0.0
08 19:10 Calm 10.00 Fair CLR 68 50 53% 29.97 0.0
08 18:55 Calm 10.00 Fair CLR 69.8 44.6 40% 29.97 0.0
08 18:15 SW 3 10.00 Fair CLR 69.8 44.6 40% 29.97 0.0
08 17:55 SW 6 10.00 Fair CLR 69.8 44.6 40% 29.97 0.0
08 17:35 S 5 10.00 Fair CLR 71.6 46.4 41% 29.97 0.0
08 17:15 SW 5 10.00 Fair CLR 71.6 46.4 41% 29.97 0.0
08 16:55 SW 7 10.00 Fair CLR 71.6 44.6 38% 29.97 0.0
08 16:35 S 6 10.00 Fair CLR 73.4 44.6 36% 29.97 0.0
08 16:15 Calm 10.00 Fair CLR 71.6 42.8 36% 29.96 0.0
08 15:55 W 3 10.00 Fair CLR 73.4 42.8 33% 29.97 0.0
08 15:35 Calm 10.00 Fair CLR 71.6 42.8 36% 29.99 0.0
08 15:15 Calm 10.00 Fair CLR 71.6 42.8 36% 30 0.0
08 14:55 SE 3 10.00 Fair CLR 71.6 42.8 36% 30 0.0
08 14:35 SW 5 10.00 Fair CLR 69.8 42.8 38% 30.02 0.0
08 14:15 NE 6 10.00 Fair CLR 69.8 42.8 38% 30.01 0.0
08 13:55 N 3 G 18 10.00 Fair CLR 69.8 42.8 38% 30.02 0.0
08 13:15 NE 7 10.00 Fair CLR 69.8 42.8 38% 30.04 0.0
08 12:55 NE 9 10.00 Fair CLR 69.8 42.8 38% 30.05 0.0
08 12:35 E 6 10.00 Fair CLR 68 42.8 40% 30.05 0.0
08 12:15 E 7 10.00 Fair CLR 69.8 42.8 38% 30.05 0.0
08 11:55 NE 7 10.00 Fair CLR 68 42.8 40% 30.06 0.0
08 11:35 NE 10 10.00 Fair CLR 68 42.8 40% 30.07 0.0
08 11:15 E 5 10.00 Fair CLR 68 44.6 43% 30.07 0.0
08 10:55 NE 7 10.00 Fair CLR 66.2 44.6 46% 30.08 0.0
08 10:35 NE 8 10.00 Fair CLR 64.4 44.6 49% 30.07 0.0
08 10:15 E 6 10.00 Fair CLR 64.4 46.4 52% 30.06 0.0
08 09:55 NE 8 10.00 Fair CLR 64.4 50 60% 30.06 0.0
08 09:15 NE 8 10.00 Fair CLR 60.8 50 68% 30.05 0.0
08 08:35 NE 7 10.00 Fair CLR 57.2 53.6 88% 30.04 0.0
08 08:15 NE 5 10.00 Fair CLR 55.4 53.6 94% 30.04 0.0
08 07:55 NE 5 10.00 Fair CLR 53.6 53.6 100% 30.03 0.0
08 07:35 NE 3 10.00 Partly Cloudy SCT004 53.6 53.6 100% 30.02 0.0
08 07:15 NE 3 10.00 Mostly Cloudy BKN004 53.6 53.6 100% 30.01 0.0
08 06:55 NE 3 10.00 Partly Cloudy SCT004 53.6 53.6 100% 30 0.0
08 06:35 NE 3 10.00 Fair CLR 53.6 53.6 100% 29.99 0.0
08 06:15 NE 3 10.00 Partly Cloudy SCT050 53.6 51.8 94% 29.99 0.0
08 05:55 NE 3 10.00 Mostly Cloudy BKN048 53.6 53.6 100% 29.98 0.0
08 05:35 N 5 10.00 Overcast OVC046 53.6 53.6 100% 29.97 0.0
08 05:15 NE 3 10.00 Mostly Cloudy BKN046 53.6 53.6 100% 29.97 0.0
08 04:55 Calm 10.00 Fair CLR 53.6 51.8 94% 29.97 0.0
08 04:35 N 3 10.00 Fair CLR 53.6 53.6 100% 29.96 0.0
08 04:15 Calm 10.00 Fair CLR 53.6 53.6 100% 29.96 0.0
08 03:55 Calm 10.00 Fair CLR 53.6 53.6 100% 29.95 0.0
08 03:35 Calm 10.00 Fair CLR 55.4 53.6 94% 29.95 0.0
08 03:15 NE 3 10.00 Fair CLR 55.4 53.6 94% 29.94 0.0
08 02:55 NE 5 10.00 Fair CLR 55.4 53.6 94% 29.95 0.0
08 02:35 Calm 10.00 Fair CLR 57.2 53.6 88% 29.94 0.0
08 02:15 NE 3 10.00 Fair CLR 59 53.6 82% 29.94 0.0
08 01:55 NE 3 10.00 Fair CLR 59 53.6 82% 29.94 0.0
08 01:35 NE 3 10.00 Partly Cloudy SCT038 60.8 53.6 77% 29.94 0.0
08 01:15 NE 7 10.00 Overcast OVC038 60.8 55.4 83% 29.95 0.0
08 00:55 NE 8 10.00 Overcast OVC033 62.6 55.4 77% 29.93 0.0
08 00:35 NE 7 10.00 Partly Cloudy SCT033 62.6 55.4 77% 29.93 0.0
08 00:15 NE 10 10.00 Partly Cloudy SCT026 SCT032 SCT046 62.6 59 88% 29.92 0.0
07 23:55 NE 13 G 18 10.00 Mostly Cloudy SCT016 SCT026 BKN034 66.2 60.8 83% 29.91 0.0
07 23:35 Calm 10.00 Partly Cloudy SCT049 68 64.4 88% 29.89 0.0
07 23:15 NW 3 10.00 Fair CLR 68 64.4 88% 29.88 0.0
07 22:55 W 3 10.00 Fair CLR 69.8 64.4 83% 29.87 0.0
07 22:35 W 5 10.00 Fair CLR 69.8 64.4 83% 29.87 0.0
07 22:15 W 5 10.00 Fair CLR 69.8 64.4 83% 29.86 0.0
07 21:35 W 3 10.00 Fair CLR 69.8 64.4 83% 29.84 0.0
07 21:15 W 3 10.00 Fair CLR 69.8 66.2 88% 29.83 0.0
07 20:55 SW 5 10.00 Fair CLR 71.6 66.2 83% 29.82 0.0
07 20:35 W 5 10.00 Partly Cloudy SCT034 71.6 66.2 83% 29.81 0.0
07 20:15 W 6 10.00 Partly Cloudy SCT034 71.6 66.2 83% 29.8 0.0
07 19:55 W 6 0.00 NULL NULL 73.4 66.2 78% 29.8 0.0
07 19:35 W 7 10.00 Partly Cloudy SCT025 SCT030 73.4 66.2 78% 29.79 0.0
07 19:15 W 7 10.00 Partly Cloudy SCT023 75.2 66.2 74% 77 29.78 0.0
07 18:55 W 8 10.00 Partly Cloudy SCT021 77 66.2 69% 79 29.78 0.0
07 18:35 W 6 G 16 10.00 Partly Cloudy SCT021 75.2 66.2 74% 77 29.79 0.0
07 18:15 W 6 10.00 Mostly Cloudy SCT021 SCT060 BKN070 77 66.2 69% 79 29.78 0.0
07 17:55 W 8 10.00 Overcast SCT021 OVC060 75.2 66.2 74% 77 29.78 0.0
07 17:35 W 12 G 17 10.00 Overcast BKN021 BKN034 OVC060 75.2 66.2 74% 77 29.79 0.0
07 17:15 SW 9 G 18 10.00 Overcast BKN019 OVC026 73.4 68 83% 29.8 0.0
07 16:55 W 8 10.00 Overcast OVC019 73.4 68 83% 29.79 0.0
07 16:35 W 15 G 23 10.00 Mostly Cloudy BKN019 75.2 66.2 74% 77 29.79 0.0
07 16:15 SW 13 G 21 10.00 Fair CLR 77 66.2 69% 79 29.79 0.0
07 15:30 SW 7 10.00 Partly Cloudy SCT008 SCT049 SCT070 71.6 68 88% 29.77 0.0 0.01
07 15:15 SW 13 G 20 10.00 Mostly Cloudy SCT049 BKN070 BKN095 69.8 68 94% 29.77 0.0 0.01
07 14:55 S 7 7.00 Light Rain SCT012 SCT032 OVC049 68 68 100% 29.79 0.0 0.02
07 14:35 Calm 5.00 Thunderstorm Light Rain OVC015 68 66.2 94% 29.84 0.0
07 14:15 SW 5 7.00 Overcast OVC019 69.8 64.4 83% 29.83 0.0
07 13:55 W 3 10.00 Overcast SCT017 BKN025 OVC030 69.8 64.4 83% 29.83 0.0
07 13:15 S 3 7.00 Overcast SCT022 BKN041 OVC048 68 64.4 88% 29.83 0.0
07 12:55 W 5 10.00 Overcast BKN048 BKN065 OVC100 68 62.6 83% 29.84 0.0
07 12:35 W 9 10.00 Mostly Cloudy SCT031 SCT065 BKN110 68 62.6 83% 29.85 0.0
07 11:55 SW 6 10.00 Partly Cloudy SCT028 SCT050 68 62.6 83% 29.83 0.0 0.02
07 11:35 W 5 10.00 Light Rain SCT030 SCT036 BKN065 68 62.6 83% 29.84 0.0 0.02
07 11:15 W 7 10.00 Rain SCT034 BKN043 OVC080 68 62.6 83% 29.84 0.0
07 10:55 SW 3 7.00 Light Rain SCT033 SCT055 BKN080 68 62.6 83% 29.82 0.0
07 10:35 SW 7 10.00 Overcast BKN085 OVC110 69.8 62.6 78% 29.85 0.0
07 10:15 SW 8 10.00 Overcast SCT055 BKN075 OVC110 69.8 62.6 78% 29.86 0.0
07 09:55 SW 7 10.00 Mostly Cloudy SCT075 BKN085 69.8 62.6 78% 29.87 0.0
07 09:35 SW 8 10.00 Partly Cloudy SCT095 SCT120 69.8 62.6 78% 29.86 0.0
07 09:15 SW 5 10.00 Partly Cloudy SCT120 69.8 62.6 78% 29.86 0.0
07 08:55 SW 5 10.00 Partly Cloudy SCT060 68 64.4 88% 29.83 0.0
07 08:35 Calm 10.00 Partly Cloudy SCT060 SCT100 68 64.4 88% 29.84 0.0
07 08:15 Calm 10.00 Mostly Cloudy SCT075 BKN100 68 64.4 88% 29.84 0.0
07 07:55 Calm 10.00 Overcast SCT050 OVC110 68 64.4 88% 29.88 0.0
07 07:35 Calm 10.00 Overcast OVC110 68 64.4 88% 29.88 0.0
07 07:15 SW 5 10.00 Overcast OVC110 68 64.4 88% 29.87 0.0
07 06:55 SW 5 10.00 Mostly Cloudy SCT100 BKN120 68 64.4 88% 29.88 0.0 0.02
07 06:35 SW 9 G 17 7.00 Light Rain SCT016 SCT055 OVC100 68 64.4 88% 29.86 0.0 0.02
07 06:15 SW 8 10.00 Light Rain SCT047 BKN085 OVC100 68 64.4 88% 29.89 0.0 0.01
07 05:55 W 9 G 17 10.00 Light Rain SCT043 BKN070 OVC090 68 64.4 88% 29.92 0.0
07 05:35 SW 6 10.00 Light Rain SCT046 BKN070 OVC090 69.8 64.4 83% 29.92 0.0
07 05:15 SW 9 10.00 Light Rain SCT070 SCT090 BKN110 69.8 64.4 83% 29.91 0.0
07 04:55 SW 5 10.00 Partly Cloudy SCT110 69.8 64.4 83% 29.87 0.0
07 04:35 SW 5 10.00 Mostly Cloudy SCT070 BKN120 69.8 64.4 83% 29.89 0.0
07 04:15 SW 3 10.00 Mostly Cloudy BKN075 BKN120 69.8 62.6 78% 29.89 0.0
07 03:55 Calm 10.00 Partly Cloudy SCT120 69.8 62.6 78% 29.9 0.0
07 03:15 S 3 10.00 Partly Cloudy SCT085 69.8 62.6 78% 29.88 0.0
07 02:55 S 5 10.00 Partly Cloudy SCT085 69.8 62.6 78% 29.88 0.0
07 02:35 S 3 10.00 Partly Cloudy SCT085 69.8 62.6 78% 29.89 0.0
07 02:15 S 7 10.00 Partly Cloudy SCT075 SCT100 69.8 62.6 78% 29.88 0.0
07 01:55 S 5 10.00 Mostly Cloudy SCT075 BKN100 69.8 62.6 78% 29.91 0.0
07 01:35 Calm 10.00 Partly Cloudy SCT075 SCT085 SCT120 69.8 62.6 78% 29.94 0.0
07 01:15 Calm 10.00 Mostly Cloudy SCT070 BKN110 69.8 62.6 78% 29.96 0.0
07 00:55 NE 3 10.00 Overcast SCT029 OVC080 71.6 62.6 73% 29.96 0.0
07 00:35 N 9 10.00 Overcast BKN080 OVC100 71.6 62.6 73% 29.98 0.0
07 00:15 SW 6 10.00 Mostly Cloudy SCT080 BKN100 71.6 62.6 73% 29.95 0.0
06 23:55 S 7 10.00 Partly Cloudy SCT100 71.6 62.6 73% 29.95 0.0
06 23:35 SW 6 10.00 Fair CLR 71.6 62.6 73% 29.94 0.0
06 23:15 SW 8 10.00 Thunderstorm in Vicinity CLR 71.6 62.6 73% 29.94 0.0
06 22:55 SW 7 10.00 Fair CLR 71.6 62.6 73% 29.93 0.0
06 22:35 S 8 10.00 Fair CLR 71.6 62.6 73% 29.91 0.0
06 22:15 S 10 G 16 10.00 Fair CLR 71.6 62.6 73% 29.91 0.0
06 21:55 S 10 10.00 Fair CLR 73.4 62.6 69% 29.91 0.0
06 21:35 S 9 G 18 10.00 Fair CLR 73.4 60.8 65% 29.91 0.0
06 21:15 S 9 G 16 10.00 Fair CLR 73.4 60.8 65% 29.92 0.0
06 20:55 S 9 G 18 10.00 Fair CLR 75.2 60.8 61% 77 29.92 0.0
06 20:35 S 10 G 17 10.00 Fair CLR 77 62.6 61% 79 29.93 0.0
06 20:15 S 9 10.00 Fair CLR 77 62.6 61% 79 29.92 0.0
06 19:55 S 8 G 16 10.00 Fair CLR 78.8 62.6 58% 80 29.92 0.0
06 19:35 S 10 G 16 10.00 Fair CLR 78.8 62.6 58% 80 29.91 0.0
06 19:15 S 3 10.00 Fair CLR 80.6 60.8 51% 81 29.9 0.0
06 18:55 S 3 10.00 Fair CLR 80.6 60.8 51% 81 29.9 0.0
06 18:35 Calm 10.00 Fair CLR 82.4 59 45% 82 29.91 0.0
06 18:15 S 9 10.00 Fair CLR 82.4 59 45% 82 29.91 0.0
06 17:55 SW 5 10.00 Fair CLR 82.4 59 45% 82 29.92 0.0
06 17:35 SW 8 10.00 Fair CLR 82.4 59 45% 82 29.92 0.0
06 17:15 SW 8 10.00 Fair CLR 82.4 59 45% 82 29.92 0.0
06 16:55 SW 8 G 16 10.00 Fair CLR 82.4 57.2 42% 82 29.92 0.0
06 16:35 SW 8 10.00 Fair CLR 82.4 57.2 42% 82 29.92 0.0
06 16:15 SW 13 G 17 10.00 Fair CLR 82.4 57.2 42% 82 29.95 0.0
06 15:55 SW 12 10.00 Fair CLR 82.4 57.2 42% 82 29.95 0.0
06 15:35 SW 9 10.00 Fair CLR 80.6 57.2 45% 81 29.95 0.0
06 15:15 SW 8 G 17 10.00 Fair CLR 78.8 57.2 48% 80 29.95 0.0
06 14:55 SW 9 10.00 Fair CLR 78.8 57.2 48% 80 29.97 0.0
06 14:35 SW 12 G 17 10.00 Fair CLR 78.8 55.4 45% 79 29.99 0.0
06 14:15 SW 8 10.00 Fair CLR 78.8 57.2 48% 80 30 0.0
06 13:55 SW 12 G 17 10.00 Fair CLR 78.8 57.2 48% 80 30 0.0
06 13:35 SW 8 10.00 Fair CLR 77 57.2 51% 79 30.01 0.0
06 13:15 W 8 10.00 Fair CLR 77 57.2 51% 79 30.03 0.0
06 12:55 SW 12 10.00 Fair CLR 77 59 54% 79 30.03 0.0
06 12:35 SW 10 G 16 10.00 Fair CLR 75.2 59 57% 78 30.03 0.0
06 12:15 SW 10 10.00 Fair CLR 77 59 54% 79 30.03 0.0
06 11:55 SW 8 10.00 Fair CLR 75.2 59 57% 78 30.03 0.0
06 11:35 SW 10 G 18 10.00 Fair CLR 77 59 54% 79 30.03 0.0
06 11:15 SW 9 G 16 10.00 Fair CLR 75.2 59 57% 78 30.03 0.0
06 10:55 S 8 10.00 Fair CLR 73.4 59 61% 30.03 0.0
06 10:35 SW 10 10.00 Fair CLR 71.6 59 65% 30.03 0.0
06 10:15 SW 10 10.00 Fair CLR 71.6 59 65% 30.03 0.0
06 09:55 SW 10 10.00 Fair CLR 69.8 59 69% 30.02 0.0
06 09:35 SW 6 10.00 Fair CLR 69.8 59 69% 30.03 0.0
Date Time (edt) Wind (mph) Vis. (mi.) Weather Sky Cond. Air Dwpt Max. Min. Relative Humidity Wind Chill (°F) Heat Index (°F) altimeter (in) sea level (mb) 1 hr 3 hr 6 hr
6 hour
Temperature (ºF) Pressure Precipitation (in)